sensor_id;sensor_type;location;lat;lon;timestamp;temperature;humidity
52869;DHT22;39100;53.480;6.158;2023-08-30T00:02:05;14.10;99.90
52869;DHT22;39100;53.480;6.158;2023-08-30T00:04:30;14.10;99.90
52869;DHT22;39100;53.480;6.158;2023-08-30T00:06:56;14.00;99.90
52869;DHT22;39100;53.480;6.158;2023-08-30T00:09:21;14.00;99.90
52869;DHT22;39100;53.480;6.158;2023-08-30T00:11:47;13.90;99.90
52869;DHT22;39100;53.480;6.158;2023-08-30T00:14:12;13.90;99.90
52869;DHT22;39100;53.480;6.158;2023-08-30T00:16:38;14.00;99.90
52869;DHT22;39100;53.480;6.158;2023-08-30T00:19:04;14.00;99.90
52869;DHT22;39100;53.480;6.158;2023-08-30T00:21:29;14.00;99.90
52869;DHT22;39100;53.480;6.158;2023-08-30T00:23:55;14.00;99.90
52869;DHT22;39100;53.480;6.158;2023-08-30T00:26:21;14.00;99.90
52869;DHT22;39100;53.480;6.158;2023-08-30T00:28:47;14.30;99.90
52869;DHT22;39100;53.480;6.158;2023-08-30T00:31:12;14.00;99.90
52869;DHT22;39100;53.480;6.158;2023-08-30T00:33:38;14.00;99.90
52869;DHT22;39100;53.480;6.158;2023-08-30T00:36:03;14.00;99.90
52869;DHT22;39100;53.480;6.158;2023-08-30T00:38:30;14.10;99.90
52869;DHT22;39100;53.480;6.158;2023-08-30T00:40:56;14.10;99.90
52869;DHT22;39100;53.480;6.158;2023-08-30T00:43:21;14.00;99.90
52869;DHT22;39100;53.480;6.158;2023-08-30T00:45:47;14.00;99.90
52869;DHT22;39100;53.480;6.158;2023-08-30T00:48:14;14.00;99.90
52869;DHT22;39100;53.480;6.158;2023-08-30T00:50:41;14.10;99.90
52869;DHT22;39100;53.480;6.158;2023-08-30T00:53:07;14.10;99.90
52869;DHT22;39100;53.480;6.158;2023-08-30T00:55:34;14.10;99.90
52869;DHT22;39100;53.480;6.158;2023-08-30T00:58:01;14.10;99.90
52869;DHT22;39100;53.480;6.158;2023-08-30T01:00:31;14.20;99.90
52869;DHT22;39100;53.480;6.158;2023-08-30T01:02:57;14.20;99.90
52869;DHT22;39100;53.480;6.158;2023-08-30T01:05:23;14.20;99.90
52869;DHT22;39100;53.480;6.158;2023-08-30T01:07:50;14.30;99.90
52869;DHT22;39100;53.480;6.158;2023-08-30T01:10:16;14.30;99.90
52869;DHT22;39100;53.480;6.158;2023-08-30T01:12:48;14.30;99.90
52869;DHT22;39100;53.480;6.158;2023-08-30T01:15:23;14.30;99.90
52869;DHT22;39100;53.480;6.158;2023-08-30T01:17:53;14.30;99.90
52869;DHT22;39100;53.480;6.158;2023-08-30T01:20:20;14.40;99.90
52869;DHT22;39100;53.480;6.158;2023-08-30T01:22:53;14.40;99.90
52869;DHT22;39100;53.480;6.158;2023-08-30T01:28:19;14.40;99.90
52869;DHT22;39100;53.480;6.158;2023-08-30T01:30:45;14.40;99.90
52869;DHT22;39100;53.480;6.158;2023-08-30T01:33:12;14.40;99.90
52869;DHT22;39100;53.480;6.158;2023-08-30T01:35:38;14.40;99.90
52869;DHT22;39100;53.480;6.158;2023-08-30T01:38:06;14.40;99.90
52869;DHT22;39100;53.480;6.158;2023-08-30T01:40:35;14.40;99.90
52869;DHT22;39100;53.480;6.158;2023-08-30T01:43:02;14.40;99.90
52869;DHT22;39100;53.480;6.158;2023-08-30T01:45:33;14.40;99.90
52869;DHT22;39100;53.480;6.158;2023-08-30T01:47:59;14.40;99.90
52869;DHT22;39100;53.480;6.158;2023-08-30T01:50:26;14.40;99.90
52869;DHT22;39100;53.480;6.158;2023-08-30T01:52:52;14.40;99.90
52869;DHT22;39100;53.480;6.158;2023-08-30T01:55:18;14.30;99.90
52869;DHT22;39100;53.480;6.158;2023-08-30T01:57:45;14.30;99.90
52869;DHT22;39100;53.480;6.158;2023-08-30T02:00:12;14.30;99.90
52869;DHT22;39100;53.480;6.158;2023-08-30T02:02:37;14.30;99.90
52869;DHT22;39100;53.480;6.158;2023-08-30T02:05:03;14.30;99.90
52869;DHT22;39100;53.480;6.158;2023-08-30T02:07:36;14.20;99.90
52869;DHT22;39100;53.480;6.158;2023-08-30T02:10:09;14.20;99.90
52869;DHT22;39100;53.480;6.158;2023-08-30T02:12:42;14.20;99.90
52869;DHT22;39100;53.480;6.158;2023-08-30T02:15:10;14.20;99.90
52869;DHT22;39100;53.480;6.158;2023-08-30T02:17:37;14.20;99.90
52869;DHT22;39100;53.480;6.158;2023-08-30T02:20:05;14.20;99.90
52869;DHT22;39100;53.480;6.158;2023-08-30T02:22:31;14.20;99.90
52869;DHT22;39100;53.480;6.158;2023-08-30T02:24:57;14.20;99.90
52869;DHT22;39100;53.480;6.158;2023-08-30T02:27:23;14.20;99.90
52869;DHT22;39100;53.480;6.158;2023-08-30T02:29:49;14.20;99.90
52869;DHT22;39100;53.480;6.158;2023-08-30T02:32:14;14.20;99.90
52869;DHT22;39100;53.480;6.158;2023-08-30T02:34:47;14.10;99.90
52869;DHT22;39100;53.480;6.158;2023-08-30T02:37:12;14.20;99.90
52869;DHT22;39100;53.480;6.158;2023-08-30T02:39:38;14.10;99.90
52869;DHT22;39100;53.480;6.158;2023-08-30T02:42:03;14.10;99.90
52869;DHT22;39100;53.480;6.158;2023-08-30T02:44:29;14.10;99.90
52869;DHT22;39100;53.480;6.158;2023-08-30T02:46:54;14.00;99.90
52869;DHT22;39100;53.480;6.158;2023-08-30T02:49:20;13.90;99.90
52869;DHT22;39100;53.480;6.158;2023-08-30T02:51:46;13.90;99.90
52869;DHT22;39100;53.480;6.158;2023-08-30T02:54:11;13.90;99.90
52869;DHT22;39100;53.480;6.158;2023-08-30T02:56:39;13.80;99.90
52869;DHT22;39100;53.480;6.158;2023-08-30T02:59:05;13.80;99.90
52869;DHT22;39100;53.480;6.158;2023-08-30T03:01:30;13.80;99.90
52869;DHT22;39100;53.480;6.158;2023-08-30T03:03:56;13.80;99.90
52869;DHT22;39100;53.480;6.158;2023-08-30T03:06:21;13.90;99.90
52869;DHT22;39100;53.480;6.158;2023-08-30T03:08:47;13.90;99.90
52869;DHT22;39100;53.480;6.158;2023-08-30T03:11:13;13.90;99.90
52869;DHT22;39100;53.480;6.158;2023-08-30T03:13:39;13.90;99.90
52869;DHT22;39100;53.480;6.158;2023-08-30T03:16:12;13.90;99.90
52869;DHT22;39100;53.480;6.158;2023-08-30T03:18:38;13.90;99.90
52869;DHT22;39100;53.480;6.158;2023-08-30T03:21:04;13.80;99.90
52869;DHT22;39100;53.480;6.158;2023-08-30T03:23:31;13.80;99.90
52869;DHT22;39100;53.480;6.158;2023-08-30T03:25:58;13.80;99.90
52869;DHT22;39100;53.480;6.158;2023-08-30T03:28:23;13.80;99.90
52869;DHT22;39100;53.480;6.158;2023-08-30T03:30:49;13.80;99.90
52869;DHT22;39100;53.480;6.158;2023-08-30T03:33:14;13.80;99.90
52869;DHT22;39100;53.480;6.158;2023-08-30T03:35:40;13.80;99.90
52869;DHT22;39100;53.480;6.158;2023-08-30T03:38:06;13.80;99.90
52869;DHT22;39100;53.480;6.158;2023-08-30T03:40:31;13.80;99.90
52869;DHT22;39100;53.480;6.158;2023-08-30T03:42:57;13.80;99.90
52869;DHT22;39100;53.480;6.158;2023-08-30T03:45:22;13.80;99.90
52869;DHT22;39100;53.480;6.158;2023-08-30T03:47:48;13.70;99.90
52869;DHT22;39100;53.480;6.158;2023-08-30T03:50:14;13.80;99.90
52869;DHT22;39100;53.480;6.158;2023-08-30T03:52:39;13.80;99.90
52869;DHT22;39100;53.480;6.158;2023-08-30T03:55:05;13.70;99.90
52869;DHT22;39100;53.480;6.158;2023-08-30T03:57:31;13.70;99.90
52869;DHT22;39100;53.480;6.158;2023-08-30T03:59:56;13.70;99.90
52869;DHT22;39100;53.480;6.158;2023-08-30T04:02:22;13.70;99.90
52869;DHT22;39100;53.480;6.158;2023-08-30T04:04:48;13.80;99.90
52869;DHT22;39100;53.480;6.158;2023-08-30T04:07:14;13.80;99.90
52869;DHT22;39100;53.480;6.158;2023-08-30T04:09:40;13.70;99.90
52869;DHT22;39100;53.480;6.158;2023-08-30T04:12:06;13.70;99.90
52869;DHT22;39100;53.480;6.158;2023-08-30T04:14:32;13.70;99.90
52869;DHT22;39100;53.480;6.158;2023-08-30T04:16:57;13.70;99.90
52869;DHT22;39100;53.480;6.158;2023-08-30T04:19:23;14.10;99.90
52869;DHT22;39100;53.480;6.158;2023-08-30T04:21:49;13.70;99.90
52869;DHT22;39100;53.480;6.158;2023-08-30T04:24:15;13.70;99.90
52869;DHT22;39100;53.480;6.158;2023-08-30T04:26:41;13.70;99.90
52869;DHT22;39100;53.480;6.158;2023-08-30T04:29:06;13.70;99.90
52869;DHT22;39100;53.480;6.158;2023-08-30T04:31:32;13.70;99.90
52869;DHT22;39100;53.480;6.158;2023-08-30T04:33:58;13.70;99.90
52869;DHT22;39100;53.480;6.158;2023-08-30T04:36:23;13.90;99.90
52869;DHT22;39100;53.480;6.158;2023-08-30T04:38:49;13.70;99.90
52869;DHT22;39100;53.480;6.158;2023-08-30T04:41:14;13.80;99.90
52869;DHT22;39100;53.480;6.158;2023-08-30T04:43:40;14.00;99.90
52869;DHT22;39100;53.480;6.158;2023-08-30T04:46:05;13.80;99.90
52869;DHT22;39100;53.480;6.158;2023-08-30T04:48:31;13.80;99.90
52869;DHT22;39100;53.480;6.158;2023-08-30T04:51:04;13.80;99.90
52869;DHT22;39100;53.480;6.158;2023-08-30T04:53:30;13.70;99.90
52869;DHT22;39100;53.480;6.158;2023-08-30T04:55:55;13.70;99.90
52869;DHT22;39100;53.480;6.158;2023-08-30T04:58:21;13.80;99.90
52869;DHT22;39100;53.480;6.158;2023-08-30T05:00:46;13.80;99.90
52869;DHT22;39100;53.480;6.158;2023-08-30T05:03:12;13.70;99.90
52869;DHT22;39100;53.480;6.158;2023-08-30T05:05:38;13.70;99.90
52869;DHT22;39100;53.480;6.158;2023-08-30T05:08:04;13.80;99.90
52869;DHT22;39100;53.480;6.158;2023-08-30T05:10:29;13.80;99.90
52869;DHT22;39100;53.480;6.158;2023-08-30T05:12:55;13.80;99.90
52869;DHT22;39100;53.480;6.158;2023-08-30T05:15:21;13.80;99.90
52869;DHT22;39100;53.480;6.158;2023-08-30T05:17:47;13.90;99.90
52869;DHT22;39100;53.480;6.158;2023-08-30T05:20:12;13.90;99.90
52869;DHT22;39100;53.480;6.158;2023-08-30T05:22:39;13.90;99.90
52869;DHT22;39100;53.480;6.158;2023-08-30T05:25:05;13.90;99.90
52869;DHT22;39100;53.480;6.158;2023-08-30T05:27:30;13.90;99.90
52869;DHT22;39100;53.480;6.158;2023-08-30T05:29:56;14.00;99.90
52869;DHT22;39100;53.480;6.158;2023-08-30T05:32:22;14.00;99.90
52869;DHT22;39100;53.480;6.158;2023-08-30T05:34:48;14.00;99.90
52869;DHT22;39100;53.480;6.158;2023-08-30T05:37:13;14.00;99.90
52869;DHT22;39100;53.480;6.158;2023-08-30T05:39:39;14.10;99.90
52869;DHT22;39100;53.480;6.158;2023-08-30T05:42:05;14.10;99.90
52869;DHT22;39100;53.480;6.158;2023-08-30T05:44:30;14.10;99.90
52869;DHT22;39100;53.480;6.158;2023-08-30T05:46:56;14.20;99.90
52869;DHT22;39100;53.480;6.158;2023-08-30T05:49:22;14.20;99.90
52869;DHT22;39100;53.480;6.158;2023-08-30T05:51:47;14.20;99.90
52869;DHT22;39100;53.480;6.158;2023-08-30T05:54:13;14.20;99.90
52869;DHT22;39100;53.480;6.158;2023-08-30T05:56:39;14.20;99.90
52869;DHT22;39100;53.480;6.158;2023-08-30T05:59:05;14.70;99.90
52869;DHT22;39100;53.480;6.158;2023-08-30T06:01:30;14.30;99.90
52869;DHT22;39100;53.480;6.158;2023-08-30T06:03:56;14.30;99.90
52869;DHT22;39100;53.480;6.158;2023-08-30T06:06:22;14.30;99.90
52869;DHT22;39100;53.480;6.158;2023-08-30T06:08:47;14.40;99.90
52869;DHT22;39100;53.480;6.158;2023-08-30T06:11:13;14.30;99.90
52869;DHT22;39100;53.480;6.158;2023-08-30T06:13:39;14.40;99.90
52869;DHT22;39100;53.480;6.158;2023-08-30T06:16:05;14.30;99.90
52869;DHT22;39100;53.480;6.158;2023-08-30T06:18:31;14.30;99.90
52869;DHT22;39100;53.480;6.158;2023-08-30T06:20:57;14.30;99.90
52869;DHT22;39100;53.480;6.158;2023-08-30T06:23:23;14.30;99.90
52869;DHT22;39100;53.480;6.158;2023-08-30T06:25:56;14.30;99.90
52869;DHT22;39100;53.480;6.158;2023-08-30T06:28:22;14.30;99.90
52869;DHT22;39100;53.480;6.158;2023-08-30T06:30:47;15.20;99.90
52869;DHT22;39100;53.480;6.158;2023-08-30T06:33:13;14.20;99.90
52869;DHT22;39100;53.480;6.158;2023-08-30T06:35:39;14.30;99.90
52869;DHT22;39100;53.480;6.158;2023-08-30T06:38:05;14.20;99.90
52869;DHT22;39100;53.480;6.158;2023-08-30T06:40:31;14.20;99.90
52869;DHT22;39100;53.480;6.158;2023-08-30T06:42:56;14.30;99.90
52869;DHT22;39100;53.480;6.158;2023-08-30T06:45:24;14.30;99.90
52869;DHT22;39100;53.480;6.158;2023-08-30T06:47:50;14.30;99.90
52869;DHT22;39100;53.480;6.158;2023-08-30T06:50:17;14.40;99.90
52869;DHT22;39100;53.480;6.158;2023-08-30T06:52:43;14.40;99.90
52869;DHT22;39100;53.480;6.158;2023-08-30T06:55:10;14.40;99.90
52869;DHT22;39100;53.480;6.158;2023-08-30T06:57:35;14.50;99.90
52869;DHT22;39100;53.480;6.158;2023-08-30T07:00:01;14.50;99.90
52869;DHT22;39100;53.480;6.158;2023-08-30T07:02:37;14.50;99.90
52869;DHT22;39100;53.480;6.158;2023-08-30T07:05:02;14.60;99.90
52869;DHT22;39100;53.480;6.158;2023-08-30T07:07:30;14.60;99.90
52869;DHT22;39100;53.480;6.158;2023-08-30T07:09:56;14.70;99.90
52869;DHT22;39100;53.480;6.158;2023-08-30T07:12:22;14.70;99.90
52869;DHT22;39100;53.480;6.158;2023-08-30T07:14:47;14.80;99.90
52869;DHT22;39100;53.480;6.158;2023-08-30T07:17:13;14.80;99.90
52869;DHT22;39100;53.480;6.158;2023-08-30T07:19:39;14.90;99.90
52869;DHT22;39100;53.480;6.158;2023-08-30T07:22:04;15.00;99.90
52869;DHT22;39100;53.480;6.158;2023-08-30T07:24:30;15.10;99.90
52869;DHT22;39100;53.480;6.158;2023-08-30T07:26:56;15.20;99.90
52869;DHT22;39100;53.480;6.158;2023-08-30T07:29:21;15.30;99.90
52869;DHT22;39100;53.480;6.158;2023-08-30T07:31:47;15.40;99.90
52869;DHT22;39100;53.480;6.158;2023-08-30T07:34:13;15.50;99.90
52869;DHT22;39100;53.480;6.158;2023-08-30T07:36:38;15.50;99.90
52869;DHT22;39100;53.480;6.158;2023-08-30T07:39:04;15.50;99.90
52869;DHT22;39100;53.480;6.158;2023-08-30T07:41:30;15.60;99.90
52869;DHT22;39100;53.480;6.158;2023-08-30T07:43:56;15.50;99.90
52869;DHT22;39100;53.480;6.158;2023-08-30T07:46:21;15.50;99.90
52869;DHT22;39100;53.480;6.158;2023-08-30T07:48:47;15.60;99.90
52869;DHT22;39100;53.480;6.158;2023-08-30T07:51:12;15.60;99.90
52869;DHT22;39100;53.480;6.158;2023-08-30T07:53:38;15.60;99.90
52869;DHT22;39100;53.480;6.158;2023-08-30T07:56:04;15.60;99.90
52869;DHT22;39100;53.480;6.158;2023-08-30T07:58:29;15.60;99.90
52869;DHT22;39100;53.480;6.158;2023-08-30T08:00:55;15.70;99.90
52869;DHT22;39100;53.480;6.158;2023-08-30T08:03:21;15.70;99.90
52869;DHT22;39100;53.480;6.158;2023-08-30T08:05:47;15.70;99.90
52869;DHT22;39100;53.480;6.158;2023-08-30T08:08:13;15.80;99.90
52869;DHT22;39100;53.480;6.158;2023-08-30T08:10:40;15.90;99.90
52869;DHT22;39100;53.480;6.158;2023-08-30T08:13:05;16.00;99.90
52869;DHT22;39100;53.480;6.158;2023-08-30T08:15:31;16.00;99.90
52869;DHT22;39100;53.480;6.158;2023-08-30T08:17:58;16.00;99.90
52869;DHT22;39100;53.480;6.158;2023-08-30T08:20:23;16.00;99.90
52869;DHT22;39100;53.480;6.158;2023-08-30T08:22:49;16.00;99.90
52869;DHT22;39100;53.480;6.158;2023-08-30T08:25:15;16.00;99.90
52869;DHT22;39100;53.480;6.158;2023-08-30T08:27:41;16.00;99.90
52869;DHT22;39100;53.480;6.158;2023-08-30T08:30:07;16.30;99.90
52869;DHT22;39100;53.480;6.158;2023-08-30T08:32:35;16.00;99.90
52869;DHT22;39100;53.480;6.158;2023-08-30T08:35:00;16.00;99.90
52869;DHT22;39100;53.480;6.158;2023-08-30T08:37:26;16.00;99.90
52869;DHT22;39100;53.480;6.158;2023-08-30T08:39:51;16.00;99.90
52869;DHT22;39100;53.480;6.158;2023-08-30T08:42:18;16.00;99.90
52869;DHT22;39100;53.480;6.158;2023-08-30T08:44:47;16.00;99.90
52869;DHT22;39100;53.480;6.158;2023-08-30T08:47:17;16.00;99.90
52869;DHT22;39100;53.480;6.158;2023-08-30T08:49:44;16.00;99.90
52869;DHT22;39100;53.480;6.158;2023-08-30T08:52:10;16.10;99.90
52869;DHT22;39100;53.480;6.158;2023-08-30T08:54:39;15.90;99.90
52869;DHT22;39100;53.480;6.158;2023-08-30T08:57:06;15.90;99.90
52869;DHT22;39100;53.480;6.158;2023-08-30T08:59:32;15.80;99.90
52869;DHT22;39100;53.480;6.158;2023-08-30T09:02:00;15.80;99.90
52869;DHT22;39100;53.480;6.158;2023-08-30T09:04:25;15.80;99.90
52869;DHT22;39100;53.480;6.158;2023-08-30T09:06:51;15.80;99.90
52869;DHT22;39100;53.480;6.158;2023-08-30T09:09:17;15.70;99.90
52869;DHT22;39100;53.480;6.158;2023-08-30T09:11:43;15.70;99.90
52869;DHT22;39100;53.480;6.158;2023-08-30T09:14:09;15.80;99.90
52869;DHT22;39100;53.480;6.158;2023-08-30T09:16:35;16.00;99.90
52869;DHT22;39100;53.480;6.158;2023-08-30T09:19:02;15.80;99.90
52869;DHT22;39100;53.480;6.158;2023-08-30T09:21:29;15.80;99.90
52869;DHT22;39100;53.480;6.158;2023-08-30T09:24:02;15.80;99.90
52869;DHT22;39100;53.480;6.158;2023-08-30T09:26:29;15.80;99.90
52869;DHT22;39100;53.480;6.158;2023-08-30T09:29:01;15.70;99.90
52869;DHT22;39100;53.480;6.158;2023-08-30T09:31:33;15.70;99.90
52869;DHT22;39100;53.480;6.158;2023-08-30T09:33:58;15.70;99.90
52869;DHT22;39100;53.480;6.158;2023-08-30T09:36:24;15.70;99.90
52869;DHT22;39100;53.480;6.158;2023-08-30T09:38:50;15.70;99.90
52869;DHT22;39100;53.480;6.158;2023-08-30T09:41:16;15.90;99.90
52869;DHT22;39100;53.480;6.158;2023-08-30T09:43:44;15.70;99.90
52869;DHT22;39100;53.480;6.158;2023-08-30T09:46:11;15.70;99.90
52869;DHT22;39100;53.480;6.158;2023-08-30T09:48:37;15.70;99.90
52869;DHT22;39100;53.480;6.158;2023-08-30T09:51:07;15.90;99.90
52869;DHT22;39100;53.480;6.158;2023-08-30T09:53:40;15.60;99.90
52869;DHT22;39100;53.480;6.158;2023-08-30T09:56:08;15.60;99.90
52869;DHT22;39100;53.480;6.158;2023-08-30T09:58:35;15.70;99.90
52869;DHT22;39100;53.480;6.158;2023-08-30T10:01:02;15.80;99.90
52869;DHT22;39100;53.480;6.158;2023-08-30T10:03:30;15.70;99.90
52869;DHT22;39100;53.480;6.158;2023-08-30T10:05:56;15.70;99.90
52869;DHT22;39100;53.480;6.158;2023-08-30T10:08:23;15.70;99.90
52869;DHT22;39100;53.480;6.158;2023-08-30T10:10:55;15.80;99.90
52869;DHT22;39100;53.480;6.158;2023-08-30T10:13:23;15.80;99.90
52869;DHT22;39100;53.480;6.158;2023-08-30T10:15:53;15.80;99.90
52869;DHT22;39100;53.480;6.158;2023-08-30T10:18:25;15.90;99.90
52869;DHT22;39100;53.480;6.158;2023-08-30T10:20:54;15.90;99.90
52869;DHT22;39100;53.480;6.158;2023-08-30T10:23:21;15.90;99.90
52869;DHT22;39100;53.480;6.158;2023-08-30T10:25:49;15.90;99.90
52869;DHT22;39100;53.480;6.158;2023-08-30T10:28:16;16.70;99.90
52869;DHT22;39100;53.480;6.158;2023-08-30T10:30:42;15.80;99.90
52869;DHT22;39100;53.480;6.158;2023-08-30T10:33:12;15.80;99.90
52869;DHT22;39100;53.480;6.158;2023-08-30T10:35:47;15.70;99.90
52869;DHT22;39100;53.480;6.158;2023-08-30T10:38:29;15.70;99.90
52869;DHT22;39100;53.480;6.158;2023-08-30T10:40:55;15.70;99.90
52869;DHT22;39100;53.480;6.158;2023-08-30T10:43:33;15.70;99.90
52869;DHT22;39100;53.480;6.158;2023-08-30T10:46:03;15.60;99.90
52869;DHT22;39100;53.480;6.158;2023-08-30T10:48:40;15.60;99.90
52869;DHT22;39100;53.480;6.158;2023-08-30T10:51:19;15.60;99.90
52869;DHT22;39100;53.480;6.158;2023-08-30T10:53:56;15.60;99.90
52869;DHT22;39100;53.480;6.158;2023-08-30T10:56:28;15.60;99.90
52869;DHT22;39100;53.480;6.158;2023-08-30T10:58:54;15.60;99.90
52869;DHT22;39100;53.480;6.158;2023-08-30T11:01:20;15.60;99.90
52869;DHT22;39100;53.480;6.158;2023-08-30T11:03:46;15.60;99.90
52869;DHT22;39100;53.480;6.158;2023-08-30T11:06:15;15.60;99.90
52869;DHT22;39100;53.480;6.158;2023-08-30T11:08:43;15.60;99.90
52869;DHT22;39100;53.480;6.158;2023-08-30T11:11:10;15.60;99.90
52869;DHT22;39100;53.480;6.158;2023-08-30T11:13:37;15.60;99.90
52869;DHT22;39100;53.480;6.158;2023-08-30T11:16:03;15.60;99.90
52869;DHT22;39100;53.480;6.158;2023-08-30T11:18:39;15.60;99.90
52869;DHT22;39100;53.480;6.158;2023-08-30T11:21:05;15.60;99.90
52869;DHT22;39100;53.480;6.158;2023-08-30T11:23:31;15.60;99.90
52869;DHT22;39100;53.480;6.158;2023-08-30T11:25:57;15.70;99.90
52869;DHT22;39100;53.480;6.158;2023-08-30T11:28:23;15.60;99.90
52869;DHT22;39100;53.480;6.158;2023-08-30T11:30:49;15.60;99.90
52869;DHT22;39100;53.480;6.158;2023-08-30T11:33:18;15.60;99.90
52869;DHT22;39100;53.480;6.158;2023-08-30T11:35:44;15.50;99.90
52869;DHT22;39100;53.480;6.158;2023-08-30T11:38:11;15.60;99.90
52869;DHT22;39100;53.480;6.158;2023-08-30T11:40:36;15.60;99.90
52869;DHT22;39100;53.480;6.158;2023-08-30T11:43:02;15.60;99.90
52869;DHT22;39100;53.480;6.158;2023-08-30T11:45:31;15.70;99.90
52869;DHT22;39100;53.480;6.158;2023-08-30T11:47:58;15.80;99.90
52869;DHT22;39100;53.480;6.158;2023-08-30T11:50:25;15.90;99.90
52869;DHT22;39100;53.480;6.158;2023-08-30T11:52:51;15.90;99.90
52869;DHT22;39100;53.480;6.158;2023-08-30T11:55:17;16.00;99.90
52869;DHT22;39100;53.480;6.158;2023-08-30T11:57:44;16.00;99.90
52869;DHT22;39100;53.480;6.158;2023-08-30T12:00:11;16.10;99.90
52869;DHT22;39100;53.480;6.158;2023-08-30T12:02:37;16.10;99.90
52869;DHT22;39100;53.480;6.158;2023-08-30T12:05:03;16.10;99.90
52869;DHT22;39100;53.480;6.158;2023-08-30T12:07:29;16.00;99.90
52869;DHT22;39100;53.480;6.158;2023-08-30T12:10:10;16.00;99.90
52869;DHT22;39100;53.480;6.158;2023-08-30T12:12:36;16.00;99.90
52869;DHT22;39100;53.480;6.158;2023-08-30T12:15:11;15.90;99.90
52869;DHT22;39100;53.480;6.158;2023-08-30T12:17:37;15.90;99.90
52869;DHT22;39100;53.480;6.158;2023-08-30T12:20:03;15.90;99.90
52869;DHT22;39100;53.480;6.158;2023-08-30T12:22:39;15.80;99.90
52869;DHT22;39100;53.480;6.158;2023-08-30T12:25:18;15.70;99.90
52869;DHT22;39100;53.480;6.158;2023-08-30T12:27:45;15.70;99.90
52869;DHT22;39100;53.480;6.158;2023-08-30T12:30:10;15.60;99.90
52869;DHT22;39100;53.480;6.158;2023-08-30T12:32:36;15.50;99.90
52869;DHT22;39100;53.480;6.158;2023-08-30T12:35:02;15.50;99.90
52869;DHT22;39100;53.480;6.158;2023-08-30T12:37:27;15.50;99.90
52869;DHT22;39100;53.480;6.158;2023-08-30T12:39:53;15.60;99.90
52869;DHT22;39100;53.480;6.158;2023-08-30T12:42:18;15.40;99.90
52869;DHT22;39100;53.480;6.158;2023-08-30T12:44:44;15.40;99.90
52869;DHT22;39100;53.480;6.158;2023-08-30T12:47:10;15.40;99.90
52869;DHT22;39100;53.480;6.158;2023-08-30T12:49:39;15.40;99.90
52869;DHT22;39100;53.480;6.158;2023-08-30T12:52:05;15.40;99.90
52869;DHT22;39100;53.480;6.158;2023-08-30T12:54:31;15.40;99.90
52869;DHT22;39100;53.480;6.158;2023-08-30T12:56:57;15.50;99.90
52869;DHT22;39100;53.480;6.158;2023-08-30T12:59:22;15.50;99.90
52869;DHT22;39100;53.480;6.158;2023-08-30T13:01:48;15.50;99.90
52869;DHT22;39100;53.480;6.158;2023-08-30T13:04:13;15.60;99.90
52869;DHT22;39100;53.480;6.158;2023-08-30T13:06:39;15.50;99.90
52869;DHT22;39100;53.480;6.158;2023-08-30T13:09:04;15.80;99.90
52869;DHT22;39100;53.480;6.158;2023-08-30T13:11:30;15.60;99.90
52869;DHT22;39100;53.480;6.158;2023-08-30T13:13:58;15.60;99.90
52869;DHT22;39100;53.480;6.158;2023-08-30T13:16:24;15.60;99.90
52869;DHT22;39100;53.480;6.158;2023-08-30T13:18:50;15.50;99.90
52869;DHT22;39100;53.480;6.158;2023-08-30T13:21:15;15.60;99.90
52869;DHT22;39100;53.480;6.158;2023-08-30T13:23:41;15.60;99.90
52869;DHT22;39100;53.480;6.158;2023-08-30T13:26:06;15.60;99.90
52869;DHT22;39100;53.480;6.158;2023-08-30T13:28:33;15.50;99.90
52869;DHT22;39100;53.480;6.158;2023-08-30T13:30:59;15.50;99.90
52869;DHT22;39100;53.480;6.158;2023-08-30T13:33:26;15.50;99.90
52869;DHT22;39100;53.480;6.158;2023-08-30T13:35:51;15.50;99.90
52869;DHT22;39100;53.480;6.158;2023-08-30T13:38:17;15.50;99.90
52869;DHT22;39100;53.480;6.158;2023-08-30T13:40:43;15.50;99.90
52869;DHT22;39100;53.480;6.158;2023-08-30T13:43:09;15.80;99.90
52869;DHT22;39100;53.480;6.158;2023-08-30T13:45:35;15.60;99.90
52869;DHT22;39100;53.480;6.158;2023-08-30T13:48:00;15.60;99.90
52869;DHT22;39100;53.480;6.158;2023-08-30T13:50:26;15.60;99.90
52869;DHT22;39100;53.480;6.158;2023-08-30T13:52:56;15.70;99.90
52869;DHT22;39100;53.480;6.158;2023-08-30T13:55:22;15.80;99.90
52869;DHT22;39100;53.480;6.158;2023-08-30T13:57:47;15.90;99.90
52869;DHT22;39100;53.480;6.158;2023-08-30T14:00:13;16.10;99.90
52869;DHT22;39100;53.480;6.158;2023-08-30T14:02:39;16.60;99.90
52869;DHT22;39100;53.480;6.158;2023-08-30T14:05:05;16.90;99.90
52869;DHT22;39100;53.480;6.158;2023-08-30T14:07:31;17.10;99.90
52869;DHT22;39100;53.480;6.158;2023-08-30T14:09:56;17.10;99.90
52869;DHT22;39100;53.480;6.158;2023-08-30T14:12:23;17.20;99.90
52869;DHT22;39100;53.480;6.158;2023-08-30T14:14:48;17.40;99.90
52869;DHT22;39100;53.480;6.158;2023-08-30T14:17:14;17.40;99.90
52869;DHT22;39100;53.480;6.158;2023-08-30T14:19:40;17.50;99.90
52869;DHT22;39100;53.480;6.158;2023-08-30T14:22:05;17.60;99.90
52869;DHT22;39100;53.480;6.158;2023-08-30T14:24:32;17.60;99.90
52869;DHT22;39100;53.480;6.158;2023-08-30T14:26:59;17.80;99.90
52869;DHT22;39100;53.480;6.158;2023-08-30T14:29:25;17.90;99.90
52869;DHT22;39100;53.480;6.158;2023-08-30T14:31:50;18.00;99.90
52869;DHT22;39100;53.480;6.158;2023-08-30T14:34:16;18.00;99.90
52869;DHT22;39100;53.480;6.158;2023-08-30T14:36:41;17.90;99.90
52869;DHT22;39100;53.480;6.158;2023-08-30T14:39:08;18.00;99.90
52869;DHT22;39100;53.480;6.158;2023-08-30T14:41:35;17.80;99.90
52869;DHT22;39100;53.480;6.158;2023-08-30T14:44:02;17.90;99.90
52869;DHT22;39100;53.480;6.158;2023-08-30T14:46:31;17.90;99.90
52869;DHT22;39100;53.480;6.158;2023-08-30T14:48:57;17.80;99.90
52869;DHT22;39100;53.480;6.158;2023-08-30T14:51:22;17.60;99.90
52869;DHT22;39100;53.480;6.158;2023-08-30T14:53:48;17.50;99.90
52869;DHT22;39100;53.480;6.158;2023-08-30T14:56:13;17.40;99.90
52869;DHT22;39100;53.480;6.158;2023-08-30T14:58:39;17.30;99.90
52869;DHT22;39100;53.480;6.158;2023-08-30T15:01:05;17.30;99.90
52869;DHT22;39100;53.480;6.158;2023-08-30T15:03:30;17.80;99.90
52869;DHT22;39100;53.480;6.158;2023-08-30T15:05:58;17.40;99.90
52869;DHT22;39100;53.480;6.158;2023-08-30T15:08:24;17.70;99.90
52869;DHT22;39100;53.480;6.158;2023-08-30T15:10:50;18.00;99.90
52869;DHT22;39100;53.480;6.158;2023-08-30T15:13:20;18.10;99.90
52869;DHT22;39100;53.480;6.158;2023-08-30T15:15:45;18.20;99.90
52869;DHT22;39100;53.480;6.158;2023-08-30T15:18:11;18.40;99.90
52869;DHT22;39100;53.480;6.158;2023-08-30T15:20:37;18.40;99.90
52869;DHT22;39100;53.480;6.158;2023-08-30T15:23:02;18.30;99.90
52869;DHT22;39100;53.480;6.158;2023-08-30T15:25:28;18.40;99.90
52869;DHT22;39100;53.480;6.158;2023-08-30T15:27:54;18.40;99.90
52869;DHT22;39100;53.480;6.158;2023-08-30T15:30:20;18.40;99.90